EKA31 PFYU-PAFA
Flight info
| Callsign | EKA31 |
|---|---|
| Flight time | N/A |
| Altitude | 14000 |
| Route | ZUREP |
| Aircraft | SH33/M-SDFGRY/S |
Departure
| Time | 2026-04-13 14:17 |
|---|---|
| Airport | Fort Yukon Airport (PFYU) |
Arrival
| Time | N/A |
|---|---|
| Airport | Fairbanks International Airport (PAFA) |
| Time | Latitude | Longitude | Altitude | Speed | Heading |
|---|---|---|---|---|---|
| 2026-04-13 14:15 | 66.56820 | -145.25601 | 444 ft | 0 kts | 244° |
| 2026-04-13 14:16 | 66.56820 | -145.25602 | 444 ft | 0 kts | 244° |
| 2026-04-13 14:16 | 66.56824 | -145.25714 | 445 ft | 15 kts | 320° |
| 2026-04-13 14:17 | 66.56952 | -145.25707 | 444 ft | 27 kts | 3° |
| 2026-04-13 14:17 | 66.57099 | -145.25275 | 445 ft | 70 kts | 61° |
| 2026-04-13 14:17 | 66.57430 | -145.23788 | 739 ft | 114 kts | 61° |
| 2026-04-13 14:17 | 66.57810 | -145.21751 | 1046 ft | 141 kts | 75° |
| 2026-04-13 14:18 | 66.57616 | -145.19329 | 1423 ft | 152 kts | 120° |
| 2026-04-13 14:18 | 66.56727 | -145.17860 | 1805 ft | 160 kts | 165° |
| 2026-04-13 14:18 | 66.55638 | -145.18349 | 2186 ft | 164 kts | 209° |
| 2026-04-13 14:18 | 66.54800 | -145.20374 | 2560 ft | 171 kts | 230° |
| 2026-04-13 14:19 | 66.54057 | -145.22760 | 2941 ft | 175 kts | 233° |
| 2026-04-13 14:19 | 66.53318 | -145.25226 | 3321 ft | 178 kts | 234° |
| 2026-04-13 14:19 | 66.52573 | -145.27717 | 3698 ft | 179 kts | 233° |
| 2026-04-13 14:19 | 66.51822 | -145.30214 | 4074 ft | 180 kts | 233° |
| 2026-04-13 14:20 | 66.51015 | -145.32629 | 4450 ft | 181 kts | 228° |
| 2026-04-13 14:20 | 66.50124 | -145.34860 | 4826 ft | 182 kts | 223° |
| 2026-04-13 14:20 | 66.49159 | -145.36938 | 5203 ft | 183 kts | 219° |
| 2026-04-13 14:20 | 66.48149 | -145.38896 | 5579 ft | 184 kts | 217° |
| 2026-04-13 14:21 | 66.47123 | -145.40746 | 5950 ft | 185 kts | 215° |
| 2026-04-13 14:21 | 66.46046 | -145.42595 | 6332 ft | 186 kts | 214° |
| 2026-04-13 14:21 | 66.44967 | -145.44391 | 6710 ft | 187 kts | 213° |
| 2026-04-13 14:21 | 66.43876 | -145.46177 | 7086 ft | 188 kts | 212° |
| 2026-04-13 14:22 | 66.42787 | -145.47939 | 7458 ft | 189 kts | 212° |
| 2026-04-13 14:22 | 66.41676 | -145.49728 | 7833 ft | 190 kts | 212° |
| 2026-04-13 14:22 | 66.40554 | -145.51518 | 8209 ft | 192 kts | 212° |
| 2026-04-13 14:22 | 66.39420 | -145.53325 | 8584 ft | 193 kts | 211° |
| 2026-04-13 14:23 | 66.38279 | -145.55141 | 8964 ft | 195 kts | 211° |
| 2026-04-13 14:23 | 66.37135 | -145.56955 | 9342 ft | 196 kts | 211° |
| 2026-04-13 14:23 | 66.35984 | -145.58782 | 9715 ft | 196 kts | 210° |
| 2026-04-13 14:23 | 66.34833 | -145.60604 | 10093 ft | 196 kts | 210° |
| 2026-04-13 14:24 | 66.33692 | -145.62394 | 10464 ft | 196 kts | 209° |
| 2026-04-13 14:24 | 66.32534 | -145.64210 | 10839 ft | 197 kts | 209° |
| 2026-04-13 14:24 | 66.31377 | -145.66023 | 11214 ft | 197 kts | 208° |
| 2026-04-13 14:24 | 66.30217 | -145.67840 | 11590 ft | 197 kts | 208° |
| 2026-04-13 14:25 | 66.29060 | -145.69651 | 11965 ft | 197 kts | 207° |
| 2026-04-13 14:25 | 66.27900 | -145.71466 | 12341 ft | 197 kts | 207° |
| 2026-04-13 14:25 | 66.26742 | -145.73274 | 12715 ft | 197 kts | 207° |
| 2026-04-13 14:25 | 66.25585 | -145.75069 | 13091 ft | 196 kts | 207° |
| 2026-04-13 14:26 | 66.24431 | -145.76867 | 13466 ft | 196 kts | 206° |
| 2026-04-13 14:26 | 66.23275 | -145.78669 | 13839 ft | 196 kts | 206° |
| 2026-04-13 14:26 | 66.22079 | -145.80523 | 13946 ft | 209 kts | 207° |
| 2026-04-13 14:26 | 66.20818 | -145.82473 | 13987 ft | 218 kts | 207° |
| 2026-04-13 14:27 | 66.19508 | -145.84507 | 13992 ft | 225 kts | 207° |
| 2026-04-13 14:27 | 66.18171 | -145.86585 | 13996 ft | 228 kts | 207° |
| 2026-04-13 14:27 | 66.16819 | -145.88688 | 13996 ft | 231 kts | 207° |
| 2026-04-13 14:27 | 66.15458 | -145.90808 | 13997 ft | 232 kts | 207° |
| 2026-04-13 14:28 | 66.14086 | -145.92927 | 13992 ft | 233 kts | 207° |
| 2026-04-13 14:28 | 66.12710 | -145.95046 | 13990 ft | 233 kts | 207° |
| 2026-04-13 14:28 | 66.11329 | -145.97167 | 13989 ft | 234 kts | 207° |
| 2026-04-13 14:28 | 66.09966 | -145.99265 | 13991 ft | 234 kts | 207° |
| 2026-04-13 14:29 | 66.08587 | -146.01388 | 13990 ft | 234 kts | 207° |
| 2026-04-13 14:29 | 66.07202 | -146.03513 | 13987 ft | 234 kts | 207° |
| 2026-04-13 14:29 | 66.05819 | -146.05633 | 13986 ft | 234 kts | 207° |
| 2026-04-13 14:29 | 66.04433 | -146.07752 | 13983 ft | 235 kts | 207° |
| 2026-04-13 14:30 | 66.03043 | -146.09875 | 13984 ft | 235 kts | 207° |
| 2026-04-13 14:30 | 66.01658 | -146.11988 | 13983 ft | 235 kts | 207° |
| 2026-04-13 14:30 | 66.00270 | -146.14109 | 13982 ft | 235 kts | 207° |
| 2026-04-13 14:30 | 65.98884 | -146.16221 | 13981 ft | 235 kts | 207° |
| 2026-04-13 14:31 | 65.97496 | -146.18332 | 13979 ft | 235 kts | 207° |
| 2026-04-13 14:31 | 65.96107 | -146.20442 | 13980 ft | 235 kts | 207° |
| 2026-04-13 14:31 | 65.94718 | -146.22548 | 13979 ft | 235 kts | 207° |
| 2026-04-13 14:31 | 65.93333 | -146.24648 | 13979 ft | 234 kts | 207° |
| 2026-04-13 14:32 | 65.91942 | -146.26752 | 13977 ft | 234 kts | 207° |
| 2026-04-13 14:32 | 65.90553 | -146.28849 | 13974 ft | 234 kts | 207° |
| 2026-04-13 14:32 | 65.89164 | -146.30944 | 13975 ft | 234 kts | 207° |
| 2026-04-13 14:32 | 65.87779 | -146.33037 | 13973 ft | 234 kts | 207° |
| 2026-04-13 14:33 | 65.86391 | -146.35127 | 13972 ft | 234 kts | 207° |
| 2026-04-13 14:33 | 65.85000 | -146.37219 | 13971 ft | 234 kts | 207° |
| 2026-04-13 14:33 | 65.83614 | -146.39302 | 13972 ft | 234 kts | 207° |
| 2026-04-13 14:33 | 65.82228 | -146.41384 | 13968 ft | 234 kts | 207° |
| 2026-04-13 14:34 | 65.80844 | -146.43465 | 13971 ft | 233 kts | 207° |
| 2026-04-13 14:34 | 65.79460 | -146.45537 | 13967 ft | 233 kts | 207° |
| 2026-04-13 14:34 | 65.78078 | -146.47605 | 13969 ft | 233 kts | 207° |
| 2026-04-13 14:34 | 65.76713 | -146.49643 | 13969 ft | 233 kts | 207° |
| 2026-04-13 14:35 | 65.75334 | -146.51696 | 13965 ft | 233 kts | 207° |
| 2026-04-13 14:35 | 65.73949 | -146.53751 | 13963 ft | 233 kts | 207° |
| 2026-04-13 14:35 | 65.72563 | -146.55806 | 13962 ft | 233 kts | 207° |
| 2026-04-13 14:35 | 65.71178 | -146.57857 | 13961 ft | 233 kts | 207° |
| 2026-04-13 14:36 | 65.69796 | -146.59903 | 13960 ft | 232 kts | 207° |
| 2026-04-13 14:36 | 65.68417 | -146.61950 | 13961 ft | 232 kts | 207° |
| 2026-04-13 14:36 | 65.67042 | -146.63992 | 13959 ft | 232 kts | 207° |
| 2026-04-13 14:36 | 65.65662 | -146.66035 | 13957 ft | 232 kts | 207° |
| 2026-04-13 14:37 | 65.64283 | -146.68065 | 13956 ft | 232 kts | 207° |
| 2026-04-13 14:37 | 65.62901 | -146.70095 | 13955 ft | 232 kts | 207° |
| 2026-04-13 14:37 | 65.61519 | -146.72125 | 13954 ft | 232 kts | 207° |
| 2026-04-13 14:37 | 65.60160 | -146.74127 | 13955 ft | 232 kts | 207° |
| 2026-04-13 14:38 | 65.58780 | -146.76157 | 13952 ft | 232 kts | 207° |
| 2026-04-13 14:38 | 65.57404 | -146.78171 | 13951 ft | 231 kts | 207° |
| 2026-04-13 14:38 | 65.56025 | -146.80191 | 13949 ft | 231 kts | 207° |
| 2026-04-13 14:38 | 65.54649 | -146.82203 | 13947 ft | 231 kts | 207° |
| 2026-04-13 14:39 | 65.53272 | -146.84221 | 13946 ft | 231 kts | 207° |
| 2026-04-13 14:39 | 65.51897 | -146.86229 | 13945 ft | 231 kts | 207° |
| 2026-04-13 14:39 | 65.50520 | -146.88232 | 13943 ft | 231 kts | 207° |
| 2026-04-13 14:39 | 65.49142 | -146.90242 | 13942 ft | 231 kts | 207° |
| 2026-04-13 14:40 | 65.47768 | -146.92242 | 13943 ft | 231 kts | 207° |
| 2026-04-13 14:40 | 65.46394 | -146.94245 | 13941 ft | 231 kts | 207° |
| 2026-04-13 14:40 | 65.45018 | -146.96237 | 13944 ft | 230 kts | 207° |
| 2026-04-13 14:40 | 65.43644 | -146.98217 | 13941 ft | 230 kts | 207° |
| 2026-04-13 14:41 | 65.42268 | -147.00195 | 13940 ft | 230 kts | 207° |
| 2026-04-13 14:41 | 65.40909 | -147.02150 | 13939 ft | 230 kts | 207° |
| 2026-04-13 14:41 | 65.39537 | -147.04122 | 13939 ft | 230 kts | 207° |
| 2026-04-13 14:41 | 65.38175 | -147.06145 | 13938 ft | 230 kts | 209° |
| 2026-04-13 14:42 | 65.36825 | -147.08224 | 13938 ft | 230 kts | 209° |
| 2026-04-13 14:42 | 65.35481 | -147.10313 | 13938 ft | 230 kts | 210° |
| 2026-04-13 14:42 | 65.34138 | -147.12399 | 13946 ft | 230 kts | 209° |
| 2026-04-13 14:42 | 65.32793 | -147.14484 | 13950 ft | 230 kts | 209° |
| 2026-04-13 14:43 | 65.31456 | -147.16550 | 13984 ft | 228 kts | 209° |
| 2026-04-13 14:43 | 65.30118 | -147.18612 | 13997 ft | 229 kts | 209° |
| 2026-04-13 14:43 | 65.28774 | -147.20675 | 13896 ft | 229 kts | 209° |
| 2026-04-13 14:43 | 65.27440 | -147.22721 | 13699 ft | 228 kts | 209° |
| 2026-04-13 14:44 | 65.26108 | -147.24758 | 13499 ft | 227 kts | 209° |
| 2026-04-13 14:44 | 65.24776 | -147.26793 | 13299 ft | 227 kts | 210° |
| 2026-04-13 14:44 | 65.23449 | -147.28817 | 13098 ft | 226 kts | 210° |
| 2026-04-13 14:44 | 65.22121 | -147.30839 | 12898 ft | 226 kts | 210° |
| 2026-04-13 14:45 | 65.20795 | -147.32855 | 12697 ft | 225 kts | 210° |
| 2026-04-13 14:45 | 65.19476 | -147.34859 | 12497 ft | 225 kts | 210° |
| 2026-04-13 14:45 | 65.18155 | -147.36863 | 12297 ft | 225 kts | 210° |
| 2026-04-13 14:45 | 65.16837 | -147.38860 | 12097 ft | 224 kts | 210° |
| 2026-04-13 14:46 | 65.15521 | -147.40850 | 11897 ft | 224 kts | 210° |
| 2026-04-13 14:46 | 65.14221 | -147.42816 | 11698 ft | 224 kts | 210° |
| 2026-04-13 14:46 | 65.12907 | -147.44799 | 11498 ft | 224 kts | 211° |
| 2026-04-13 14:46 | 65.11592 | -147.46781 | 11298 ft | 224 kts | 211° |
| 2026-04-13 14:47 | 65.10272 | -147.48769 | 11097 ft | 224 kts | 211° |
| 2026-04-13 14:47 | 65.08956 | -147.50749 | 10897 ft | 224 kts | 211° |
| 2026-04-13 14:47 | 65.07639 | -147.52729 | 10697 ft | 224 kts | 211° |
| 2026-04-13 14:47 | 65.06322 | -147.54706 | 10497 ft | 224 kts | 211° |
| 2026-04-13 14:48 | 65.05002 | -147.56684 | 10296 ft | 224 kts | 211° |
| 2026-04-13 14:48 | 65.03697 | -147.58637 | 10098 ft | 224 kts | 211° |
| 2026-04-13 14:48 | 65.02379 | -147.60608 | 9898 ft | 224 kts | 211° |
| 2026-04-13 14:48 | 65.01056 | -147.62585 | 9697 ft | 224 kts | 211° |
| 2026-04-13 14:49 | 64.99731 | -147.64561 | 9496 ft | 224 kts | 212° |
| 2026-04-13 14:49 | 64.98408 | -147.66532 | 9296 ft | 224 kts | 212° |
| 2026-04-13 14:49 | 64.97086 | -147.68500 | 9096 ft | 224 kts | 212° |
| 2026-04-13 14:49 | 64.95761 | -147.70470 | 8895 ft | 225 kts | 212° |
| 2026-04-13 14:50 | 64.94441 | -147.72430 | 8695 ft | 225 kts | 212° |
| 2026-04-13 14:50 | 64.93119 | -147.74392 | 8495 ft | 224 kts | 212° |
| 2026-04-13 14:50 | 64.91817 | -147.76321 | 8297 ft | 223 kts | 212° |
| 2026-04-13 14:50 | 64.90502 | -147.78267 | 8097 ft | 223 kts | 212° |
| 2026-04-13 14:51 | 64.89243 | -147.80127 | 7894 ft | 201 kts | 212° |
| 2026-04-13 14:51 | 64.88092 | -147.81828 | 7692 ft | 190 kts | 212° |
| 2026-04-13 14:51 | 64.86988 | -147.83456 | 7491 ft | 184 kts | 212° |
| 2026-04-13 14:51 | 64.85915 | -147.85039 | 7289 ft | 180 kts | 212° |
| 2026-04-13 14:52 | 64.84861 | -147.86592 | 7087 ft | 178 kts | 212° |
| 2026-04-13 14:52 | 64.83822 | -147.88121 | 6889 ft | 176 kts | 212° |
| 2026-04-13 14:52 | 64.83131 | -147.89136 | 6755 ft | 175 kts | 212° |
| 2026-04-13 14:52 | 64.82102 | -147.90645 | 6555 ft | 174 kts | 212° |
| 2026-04-13 14:53 | 64.80745 | -147.92634 | 6288 ft | 173 kts | 212° |
| 2026-04-13 14:53 | 64.79725 | -147.94134 | 6090 ft | 173 kts | 212° |
| 2026-04-13 14:53 | 64.79036 | -147.95151 | 5953 ft | 172 kts | 212° |